Atlantic Clover — 3FVD6 — position and weather

sailwx.info

Track history (hours):
 
Tides and Currents Weather Stations Pressure Air Temp Water Temp Dewpoint Dewpoint Depression Visibility Wind Speed Wind Dir Waves Ship Positions

Atlantic Clover

Last reported at 2015-Mar-03 16:03 UTC. Time now 2015-Mar-05 08:06 UTC.
Position N 50°32' E 000°17'.

Length 180 m; draft 9.8 m.

Type: Cargo ship. MMSI: 371263000.

Date/timePositionNaut miles runAvg speedWind from/ knotsBaromVisibWave heightAir tempDewpointWater temp
2015-Mar-03 16:03N 50°32' E 000°17'612.2
2015-Mar-03 15:33N 50°34' E 000°26'1212.0
2015-Mar-03 14:32N 50°40' E 000°43'1111.6
2015-Mar-03 13:33N 50°47' E 000°57'1410.8
2015-Mar-03 12:14N 50°56' E 001°14'6 9.5
2015-Mar-03 11:33N 51°01' E 001°21'9 8.6
2015-Mar-03 10:33N 51°06' E 001°32'9 8.9
2015-Mar-03 09:33N 51°12' E 001°43'1110.9
2015-Mar-03 08:33N 51°20' E 001°54'10 9.4
2015-Mar-03 07:32N 51°22' E 002°09'1212.2
2015-Mar-03 06:33N 51°23' E 002°28'1211.7
2015-Mar-03 05:33N 51°22' E 002°47'1211.9
2015-Mar-03 04:33N 51°24' E 003°06'1313.5
2015-Mar-03 03:33N 51°25' E 003°27'10 9.6
2015-Mar-03 02:34N 51°25' E 003°42'9 9.4
2015-Mar-03 01:34N 51°25' E 003°58'8 7.7
2015-Mar-03 00:33N 51°23' E 004°10'5 5.3
2015-Mar-02 23:34N 51°21' E 004°17'0 0.2
2015-Mar-02 22:34N 51°21' E 004°17'3 3.0
2015-Mar-02 21:33N 51°18' E 004°20'1 1.3
2015-Mar-02 20:33N 51°17' E 004°21'0 0.0
2015-Mar-02 19:33N 51°17' E 004°21'0 0.0
2015-Mar-02 18:33N 51°17' E 004°21'0 0.0
2015-Mar-02 17:33N 51°17' E 004°21'0 0.0
2015-Mar-02 16:33N 51°17' E 004°21'0 0.0
2015-Mar-02 15:27N 51°17' E 004°21'0 0.0
2015-Mar-02 14:33N 51°17' E 004°21'0 0.0
2015-Mar-02 13:33N 51°17' E 004°21'0 0.0
2015-Mar-02 12:33N 51°17' E 004°21'0 0.0
2015-Mar-02 11:33N 51°17' E 004°21'0 0.0
2015-Mar-02 10:33N 51°17' E 004°21'0 0.0
2015-Mar-02 09:33N 51°17' E 004°21'0 0.0
2015-Mar-02 08:33N 51°17' E 004°21'0 0.0
2015-Mar-02 07:30N 51°17' E 004°21'0 0.0
2015-Mar-02 06:33N 51°17' E 004°21'0 0.0
2015-Mar-02 05:33N 51°17' E 004°21'0 0.0
2015-Mar-02 04:33N 51°17' E 004°21'0 0.0
2015-Mar-02 03:33N 51°17' E 004°21'0 0.0
2015-Mar-02 02:33N 51°17' E 004°21'0 0.0
2015-Mar-02 01:24N 51°17' E 004°21'0 0.0
2015-Mar-02 00:33N 51°17' E 004°21'0 0.0
2015-Mar-01 23:30N 51°17' E 004°21'0 0.0
2015-Mar-01 22:33N 51°17' E 004°21'0 0.0
2015-Mar-01 21:33N 51°17' E 004°21'0 0.0
2015-Mar-01 20:33N 51°17' E 004°21'0 0.0
2015-Mar-01 19:30N 51°17' E 004°21'0 0.0
2015-Mar-01 18:33N 51°17' E 004°21'0 0.0
2015-Mar-01 17:33N 51°17' E 004°21'0 0.0
2015-Mar-01 16:33N 51°17' E 004°21'0 0.0
2015-Mar-01 15:33N 51°17' E 004°21'0 0.0
2015-Mar-01 14:33N 51°17' E 004°21'0 0.0
2015-Mar-01 13:33N 51°17' E 004°21'0 0.0
2015-Mar-01 12:33N 51°17' E 004°21'0 0.0
2015-Mar-01 11:33N 51°17' E 004°21'0 0.0
2015-Mar-01 10:30N 51°17' E 004°21'0 0.0
2015-Mar-01 09:33N 51°17' E 004°21'0 0.0
2015-Mar-01 08:27N 51°17' E 004°21'0 0.0
2015-Mar-01 07:30N 51°17' E 004°21'0 0.0
2015-Mar-01 06:33N 51°17' E 004°21'0 0.0
2015-Mar-01 05:33N 51°17' E 004°21'0 0.0
2015-Mar-01 04:33N 51°17' E 004°21'0 0.0
2015-Mar-01 03:33N 51°17' E 004°21'0 0.0
2015-Mar-01 02:33N 51°17' E 004°21'0 0.0
2015-Mar-01 01:33N 51°17' E 004°21'0 0.0
2015-Mar-01 00:33N 51°17' E 004°21'0 0.0
2015-Feb-28 23:33N 51°17' E 004°21'0 0.0
2015-Feb-28 22:33N 51°17' E 004°21'0 0.0
2015-Feb-28 21:33N 51°17' E 004°21'0 0.0
2015-Feb-28 20:33N 51°17' E 004°21'0 0.0
2015-Feb-28 19:33N 51°17' E 004°21'0 0.0
2015-Feb-28 18:33N 51°17' E 004°21'0 0.0
2015-Feb-28 17:33N 51°17' E 004°21'0 0.0
2015-Feb-28 16:33N 51°17' E 004°21'0 0.0
2015-Feb-28 15:33N 51°17' E 004°21'0 0.0
2015-Feb-28 14:33N 51°17' E 004°21'0 0.0
2015-Feb-28 13:33N 51°17' E 004°21'0 0.0
2015-Feb-28 12:33N 51°17' E 004°21'0 0.0
2015-Feb-28 11:33N 51°17' E 004°21'0 0.0
2015-Feb-28 10:33N 51°17' E 004°21'0 0.0
2015-Feb-28 09:33N 51°17' E 004°21'0 0.0
2015-Feb-28 08:33N 51°17' E 004°21'0 0.0
2015-Feb-28 07:33N 51°17' E 004°21'0 0.0
2015-Feb-28 06:33N 51°17' E 004°21'0 0.0
2015-Feb-28 05:33N 51°17' E 004°21'0 0.0
2015-Feb-28 04:30N 51°17' E 004°21'0 0.0
2015-Feb-28 03:33N 51°17' E 004°21'0 0.0
2015-Feb-28 02:33N 51°17' E 004°21'0 0.0
2015-Feb-28 01:33N 51°17' E 004°21'0 0.0
2015-Feb-28 00:33N 51°17' E 004°21'0 0.0
2015-Feb-27 23:33N 51°17' E 004°21'0 0.0
2015-Feb-27 22:33N 51°17' E 004°21'0 0.0
2015-Feb-27 21:33N 51°17' E 004°21'0 0.0
2015-Feb-27 20:33N 51°17' E 004°21'0 0.0
2015-Feb-27 19:33N 51°17' E 004°21'0 0.0
2015-Feb-27 18:33N 51°17' E 004°21'0 0.0
2015-Feb-27 17:33N 51°17' E 004°21'0 0.0
2015-Feb-27 16:33N 51°17' E 004°21'0 0.0
2015-Feb-27 15:33N 51°17' E 004°21'0 0.0
2015-Feb-27 14:30N 51°17' E 004°21'0 0.0
2015-Feb-27 13:27N 51°17' E 004°21'0 0.0
2015-Feb-27 12:27N 51°17' E 004°21'0 0.0
2015-Feb-27 11:33N 51°17' E 004°21'0 0.0
2015-Feb-27 10:33N 51°17' E 004°21'0 0.0
2015-Feb-27 09:33N 51°17' E 004°21'0 0.0
2015-Feb-27 08:33N 51°17' E 004°21'0 0.0
2015-Feb-27 07:33N 51°17' E 004°21'0 0.0
2015-Feb-27 06:33N 51°17' E 004°21'0 0.0
2015-Feb-27 05:33N 51°17' E 004°21'0 0.0
2015-Feb-27 04:33N 51°17' E 004°21'0 0.0
2015-Feb-27 03:33N 51°17' E 004°21'0 0.0
2015-Feb-27 02:33N 51°17' E 004°21'0 0.0
2015-Feb-27 01:33N 51°17' E 004°21'0 0.0
2015-Feb-27 00:33N 51°17' E 004°21'0 0.0
2015-Feb-26 23:33N 51°17' E 004°21'0 0.0
2015-Feb-26 22:33N 51°17' E 004°21'0 0.0
2015-Feb-26 21:30N 51°17' E 004°21'0 0.0
2015-Feb-26 20:33N 51°17' E 004°21'0 0.0
2015-Feb-26 19:33N 51°17' E 004°21'0 0.0
2015-Feb-26 18:27N 51°17' E 004°21'0 0.0
2015-Feb-26 17:33N 51°17' E 004°21'0 0.0
2015-Feb-26 16:33N 51°17' E 004°21'1 0.6
2015-Feb-26 15:34N 51°17' E 004°20'1 0.5
2015-Feb-26 14:34N 51°17' E 004°19'7 6.7
2015-Feb-26 13:33N 51°22' E 004°13'7 7.4
2015-Feb-26 12:33N 51°25' E 004°02'8 8.5
2015-Feb-26 11:33N 51°21' E 003°50'9 9.2
2015-Feb-26 10:34N 51°26' E 003°38'9 9.4
2015-Feb-26 09:34N 51°25' E 003°24'1312.8
2015-Feb-26 08:34N 51°24' E 003°03'1313.0
2015-Feb-26 07:33N 51°22' E 002°42'6 6.3
2015-Feb-26 06:34N 51°29' E 002°42'18110.5
2015-Feb-25 13:16N 54°14' E 000°41'912.6
2015-Feb-25 12:33N 54°18' E 000°27'1312.7
2015-Feb-25 11:33N 54°24' E 000°07'1313.2
2015-Feb-25 10:34N 54°29' W 000°13'1413.7
2015-Feb-25 09:33N 54°35' W 000°35'1413.9
2015-Feb-25 08:31N 54°40' W 000°58'7 7.4
2015-Feb-25 07:32N 54°41' W 001°10'1 1.0
2015-Feb-25 06:29N 54°42' W 001°12'0 0.0
2015-Feb-25 05:31N 54°42' W 001°12'0 0.0
2015-Feb-25 04:28N 54°42' W 001°12'0 0.0
2015-Feb-25 03:28N 54°42' W 001°12'0 0.0
2015-Feb-25 02:19N 54°42' W 001°12'0 0.0
2015-Feb-25 01:28N 54°42' W 001°12'0 0.0
2015-Feb-25 00:31N 54°42' W 001°12'0 0.0
2015-Feb-24 23:28N 54°42' W 001°12'0 0.0
2015-Feb-24 21:22N 54°42' W 001°12'0 0.0
2015-Feb-24 20:10N 54°42' W 001°12'0 0.0
2015-Feb-24 19:14N 54°42' W 001°12'0 0.0
2015-Feb-24 17:31N 54°42' W 001°12'0 0.0
2015-Feb-24 16:08N 54°42' W 001°12'0 0.0
2015-Feb-24 15:22N 54°42' W 001°12'0 0.0
2015-Feb-24 14:22N 54°42' W 001°12'0 0.0
2015-Feb-24 13:25N 54°42' W 001°12'0 0.0
2015-Feb-24 12:25N 54°42' W 001°12'0 0.0
2015-Feb-24 11:25N 54°42' W 001°12'0 0.0
2015-Feb-24 10:28N 54°42' W 001°12'0 0.0
2015-Feb-24 09:31N 54°42' W 001°12'0 0.0
2015-Feb-24 08:31N 54°42' W 001°12'0 0.0
2015-Feb-24 07:28N 54°42' W 001°12'0 0.0
2015-Feb-24 06:28N 54°42' W 001°12'0 0.0
2015-Feb-24 05:22N 54°42' W 001°12'0 0.0
2015-Feb-24 04:28N 54°42' W 001°12'0 0.0
2015-Feb-24 03:28N 54°42' W 001°12'0 0.0
2015-Feb-24 02:31N 54°42' W 001°12'0 0.0
2015-Feb-24 01:31N 54°42' W 001°12'0 0.0
2015-Feb-24 00:28N 54°42' W 001°12'0 0.0
2015-Feb-23 23:22N 54°42' W 001°12'0 0.0
2015-Feb-23 22:10N 54°42' W 001°12'0 0.0
2015-Feb-23 21:25N 54°42' W 001°12'0 0.0
2015-Feb-23 17:31N 54°42' W 001°12'0 0.0
2015-Feb-23 16:28N 54°42' W 001°12'0 0.0
2015-Feb-23 15:28N 54°42' W 001°12'0 0.0
2015-Feb-23 14:28N 54°42' W 001°12'0 0.0
2015-Feb-23 13:28N 54°42' W 001°12'0 0.0
2015-Feb-23 12:28N 54°42' W 001°12'0 0.0
2015-Feb-23 11:19N 54°42' W 001°12'0 0.0
2015-Feb-23 10:19N 54°42' W 001°12'0 0.0
2015-Feb-23 09:25N 54°42' W 001°12'0 0.0
2015-Feb-23 08:25N 54°42' W 001°12'0 0.0
2015-Feb-23 07:25N 54°42' W 001°12'0 0.0
2015-Feb-23 05:31N 54°42' W 001°12'0 0.0
2015-Feb-23 04:19N 54°42' W 001°12'0 0.0
2015-Feb-23 03:28N 54°42' W 001°12'0 0.0
2015-Feb-23 02:10N 54°42' W 001°12'0 0.0
2015-Feb-23 01:22N 54°42' W 001°12'0 0.0
2015-Feb-23 00:31N 54°42' W 001°12'0 0.0
2015-Feb-22 22:25N 54°42' W 001°12'0 0.0
2015-Feb-22 21:07N 54°42' W 001°12'0 0.0
2015-Feb-22 16:04N 54°42' W 001°12'0 0.0
2015-Feb-22 15:25N 54°42' W 001°12'0 0.0
2015-Feb-22 14:28N 54°42' W 001°12'0 0.0
2015-Feb-22 13:13N 54°42' W 001°12'0 0.0
2015-Feb-22 12:28N 54°42' W 001°12'0 0.0
2015-Feb-22 11:31N 54°42' W 001°12'0 0.0
2015-Feb-22 10:16N 54°42' W 001°12'0 0.0
2015-Feb-22 09:22N 54°42' W 001°12'0 0.0
2015-Feb-22 08:19N 54°42' W 001°12'0 0.0
2015-Feb-22 07:19N 54°42' W 001°12'0 0.0
2015-Feb-22 06:22N 54°42' W 001°12'  
Track history (hours):
 
Tides and Currents Weather Stations Pressure Air Temp Water Temp Dewpoint Dewpoint Depression Visibility Wind Speed Wind Dir Waves Ship Positions

Atlantic Clover

Last reported at 2015-Mar-03 16:03 UTC. Time now 2015-Mar-05 08:06 UTC.
Position N 50°32' E 000°17'.

Length 180 m; draft 9.8 m.

Type: Cargo ship. MMSI: 371263000.

Date/timePositionNaut miles runAvg speedWind from/ knotsBaromVisibWave heightAir tempDewpointWater temp
2015-Mar-03 16:03N 50°32' E 000°17'612.2
2015-Mar-03 15:33N 50°34' E 000°26'1212.0
2015-Mar-03 14:32N 50°40' E 000°43'1111.6
2015-Mar-03 13:33N 50°47' E 000°57'1410.8
2015-Mar-03 12:14N 50°56' E 001°14'6 9.5
2015-Mar-03 11:33N 51°01' E 001°21'9 8.6
2015-Mar-03 10:33N 51°06' E 001°32'9 8.9
2015-Mar-03 09:33N 51°12' E 001°43'1110.9
2015-Mar-03 08:33N 51°20' E 001°54'10 9.4
2015-Mar-03 07:32N 51°22' E 002°09'1212.2
2015-Mar-03 06:33N 51°23' E 002°28'1211.7
2015-Mar-03 05:33N 51°22' E 002°47'1211.9
2015-Mar-03 04:33N 51°24' E 003°06'1313.5
2015-Mar-03 03:33N 51°25' E 003°27'10 9.6
2015-Mar-03 02:34N 51°25' E 003°42'9 9.4
2015-Mar-03 01:34N 51°25' E 003°58'8 7.7
2015-Mar-03 00:33N 51°23' E 004°10'5 5.3
2015-Mar-02 23:34N 51°21' E 004°17'0 0.2
2015-Mar-02 22:34N 51°21' E 004°17'3 3.0
2015-Mar-02 21:33N 51°18' E 004°20'1 1.3
2015-Mar-02 20:33N 51°17' E 004°21'0 0.0
2015-Mar-02 19:33N 51°17' E 004°21'0 0.0
2015-Mar-02 18:33N 51°17' E 004°21'0 0.0
2015-Mar-02 17:33N 51°17' E 004°21'0 0.0
2015-Mar-02 16:33N 51°17' E 004°21'0 0.0
2015-Mar-02 15:27N 51°17' E 004°21'0 0.0
2015-Mar-02 14:33N 51°17' E 004°21'0 0.0
2015-Mar-02 13:33N 51°17' E 004°21'0 0.0
2015-Mar-02 12:33N 51°17' E 004°21'0 0.0
2015-Mar-02 11:33N 51°17' E 004°21'0 0.0
2015-Mar-02 10:33N 51°17' E 004°21'0 0.0
2015-Mar-02 09:33N 51°17' E 004°21'0 0.0
2015-Mar-02 08:33N 51°17' E 004°21'0 0.0
2015-Mar-02 07:30N 51°17' E 004°21'0 0.0
2015-Mar-02 06:33N 51°17' E 004°21'0 0.0
2015-Mar-02 05:33N 51°17' E 004°21'0 0.0
2015-Mar-02 04:33N 51°17' E 004°21'0 0.0
2015-Mar-02 03:33N 51°17' E 004°21'0 0.0
2015-Mar-02 02:33N 51°17' E 004°21'0 0.0
2015-Mar-02 01:24N 51°17' E 004°21'0 0.0
2015-Mar-02 00:33N 51°17' E 004°21'0 0.0
2015-Mar-01 23:30N 51°17' E 004°21'0 0.0
2015-Mar-01 22:33N 51°17' E 004°21'0 0.0
2015-Mar-01 21:33N 51°17' E 004°21'0 0.0
2015-Mar-01 20:33N 51°17' E 004°21'0 0.0
2015-Mar-01 19:30N 51°17' E 004°21'0 0.0
2015-Mar-01 18:33N 51°17' E 004°21'0 0.0
2015-Mar-01 17:33N 51°17' E 004°21'0 0.0
2015-Mar-01 16:33N 51°17' E 004°21'0 0.0
2015-Mar-01 15:33N 51°17' E 004°21'0 0.0
2015-Mar-01 14:33N 51°17' E 004°21'0 0.0
2015-Mar-01 13:33N 51°17' E 004°21'0 0.0
2015-Mar-01 12:33N 51°17' E 004°21'0 0.0
2015-Mar-01 11:33N 51°17' E 004°21'0 0.0
2015-Mar-01 10:30N 51°17' E 004°21'0 0.0
2015-Mar-01 09:33N 51°17' E 004°21'0 0.0
2015-Mar-01 08:27N 51°17' E 004°21'0 0.0
2015-Mar-01 07:30N 51°17' E 004°21'0 0.0
2015-Mar-01 06:33N 51°17' E 004°21'0 0.0
2015-Mar-01 05:33N 51°17' E 004°21'0 0.0
2015-Mar-01 04:33N 51°17' E 004°21'0 0.0
2015-Mar-01 03:33N 51°17' E 004°21'0 0.0
2015-Mar-01 02:33N 51°17' E 004°21'0 0.0
2015-Mar-01 01:33N 51°17' E 004°21'0 0.0
2015-Mar-01 00:33N 51°17' E 004°21'0 0.0
2015-Feb-28 23:33N 51°17' E 004°21'0 0.0
2015-Feb-28 22:33N 51°17' E 004°21'0 0.0
2015-Feb-28 21:33N 51°17' E 004°21'0 0.0
2015-Feb-28 20:33N 51°17' E 004°21'0 0.0
2015-Feb-28 19:33N 51°17' E 004°21'0 0.0
2015-Feb-28 18:33N 51°17' E 004°21'0 0.0
2015-Feb-28 17:33N 51°17' E 004°21'0 0.0
2015-Feb-28 16:33N 51°17' E 004°21'0 0.0
2015-Feb-28 15:33N 51°17' E 004°21'0 0.0
2015-Feb-28 14:33N 51°17' E 004°21'0 0.0
2015-Feb-28 13:33N 51°17' E 004°21'0 0.0
2015-Feb-28 12:33N 51°17' E 004°21'0 0.0
2015-Feb-28 11:33N 51°17' E 004°21'0 0.0
2015-Feb-28 10:33N 51°17' E 004°21'0 0.0
2015-Feb-28 09:33N 51°17' E 004°21'0 0.0
2015-Feb-28 08:33N 51°17' E 004°21'0 0.0
2015-Feb-28 07:33N 51°17' E 004°21'0 0.0
2015-Feb-28 06:33N 51°17' E 004°21'0 0.0
2015-Feb-28 05:33N 51°17' E 004°21'0 0.0
2015-Feb-28 04:30N 51°17' E 004°21'0 0.0
2015-Feb-28 03:33N 51°17' E 004°21'0 0.0
2015-Feb-28 02:33N 51°17' E 004°21'0 0.0
2015-Feb-28 01:33N 51°17' E 004°21'0 0.0
2015-Feb-28 00:33N 51°17' E 004°21'0 0.0
2015-Feb-27 23:33N 51°17' E 004°21'0 0.0
2015-Feb-27 22:33N 51°17' E 004°21'0 0.0
2015-Feb-27 21:33N 51°17' E 004°21'0 0.0
2015-Feb-27 20:33N 51°17' E 004°21'0 0.0
2015-Feb-27 19:33N 51°17' E 004°21'0 0.0
2015-Feb-27 18:33N 51°17' E 004°21'0 0.0
2015-Feb-27 17:33N 51°17' E 004°21'0 0.0
2015-Feb-27 16:33N 51°17' E 004°21'0 0.0
2015-Feb-27 15:33N 51°17' E 004°21'0 0.0
2015-Feb-27 14:30N 51°17' E 004°21'0 0.0
2015-Feb-27 13:27N 51°17' E 004°21'0 0.0
2015-Feb-27 12:27N 51°17' E 004°21'0 0.0
2015-Feb-27 11:33N 51°17' E 004°21'0 0.0
2015-Feb-27 10:33N 51°17' E 004°21'0 0.0
2015-Feb-27 09:33N 51°17' E 004°21'0 0.0
2015-Feb-27 08:33N 51°17' E 004°21'0 0.0
2015-Feb-27 07:33N 51°17' E 004°21'0 0.0
2015-Feb-27 06:33N 51°17' E 004°21'0 0.0
2015-Feb-27 05:33N 51°17' E 004°21'0 0.0
2015-Feb-27 04:33N 51°17' E 004°21'0 0.0
2015-Feb-27 03:33N 51°17' E 004°21'0 0.0
2015-Feb-27 02:33N 51°17' E 004°21'0 0.0
2015-Feb-27 01:33N 51°17' E 004°21'0 0.0
2015-Feb-27 00:33N 51°17' E 004°21'0 0.0
2015-Feb-26 23:33N 51°17' E 004°21'0 0.0
2015-Feb-26 22:33N 51°17' E 004°21'0 0.0
2015-Feb-26 21:30N 51°17' E 004°21'0 0.0
2015-Feb-26 20:33N 51°17' E 004°21'0 0.0
2015-Feb-26 19:33N 51°17' E 004°21'0 0.0
2015-Feb-26 18:27N 51°17' E 004°21'0 0.0
2015-Feb-26 17:33N 51°17' E 004°21'0 0.0
2015-Feb-26 16:33N 51°17' E 004°21'1 0.6
2015-Feb-26 15:34N 51°17' E 004°20'1 0.5
2015-Feb-26 14:34N 51°17' E 004°19'7 6.7
2015-Feb-26 13:33N 51°22' E 004°13'7 7.4
2015-Feb-26 12:33N 51°25' E 004°02'8 8.5
2015-Feb-26 11:33N 51°21' E 003°50'9 9.2
2015-Feb-26 10:34N 51°26' E 003°38'9 9.4
2015-Feb-26 09:34N 51°25' E 003°24'1312.8
2015-Feb-26 08:34N 51°24' E 003°03'1313.0
2015-Feb-26 07:33N 51°22' E 002°42'6 6.3
2015-Feb-26 06:34N 51°29' E 002°42'18110.5
2015-Feb-25 13:16N 54°14' E 000°41'912.6
2015-Feb-25 12:33N 54°18' E 000°27'1312.7
2015-Feb-25 11:33N 54°24' E 000°07'1313.2
2015-Feb-25 10:34N 54°29' W 000°13'1413.7
2015-Feb-25 09:33N 54°35' W 000°35'1413.9
2015-Feb-25 08:31N 54°40' W 000°58'7 7.4
2015-Feb-25 07:32N 54°41' W 001°10'1 1.0
2015-Feb-25 06:29N 54°42' W 001°12'0 0.0
2015-Feb-25 05:31N 54°42' W 001°12'0 0.0
2015-Feb-25 04:28N 54°42' W 001°12'0 0.0
2015-Feb-25 03:28N 54°42' W 001°12'0 0.0
2015-Feb-25 02:19N 54°42' W 001°12'0 0.0
2015-Feb-25 01:28N 54°42' W 001°12'0 0.0
2015-Feb-25 00:31N 54°42' W 001°12'0 0.0
2015-Feb-24 23:28N 54°42' W 001°12'0 0.0
2015-Feb-24 21:22N 54°42' W 001°12'0 0.0
2015-Feb-24 20:10N 54°42' W 001°12'0 0.0
2015-Feb-24 19:14N 54°42' W 001°12'0 0.0
2015-Feb-24 17:31N 54°42' W 001°12'0 0.0
2015-Feb-24 16:08N 54°42' W 001°12'0 0.0
2015-Feb-24 15:22N 54°42' W 001°12'0 0.0
2015-Feb-24 14:22N 54°42' W 001°12'0 0.0
2015-Feb-24 13:25N 54°42' W 001°12'0 0.0
2015-Feb-24 12:25N 54°42' W 001°12'0 0.0
2015-Feb-24 11:25N 54°42' W 001°12'0 0.0
2015-Feb-24 10:28N 54°42' W 001°12'0 0.0
2015-Feb-24 09:31N 54°42' W 001°12'0 0.0
2015-Feb-24 08:31N 54°42' W 001°12'0 0.0
2015-Feb-24 07:28N 54°42' W 001°12'0 0.0
2015-Feb-24 06:28N 54°42' W 001°12'0 0.0
2015-Feb-24 05:22N 54°42' W 001°12'0 0.0
2015-Feb-24 04:28N 54°42' W 001°12'0 0.0
2015-Feb-24 03:28N 54°42' W 001°12'0 0.0
2015-Feb-24 02:31N 54°42' W 001°12'0 0.0
2015-Feb-24 01:31N 54°42' W 001°12'0 0.0
2015-Feb-24 00:28N 54°42' W 001°12'0 0.0
2015-Feb-23 23:22N 54°42' W 001°12'0 0.0
2015-Feb-23 22:10N 54°42' W 001°12'0 0.0
2015-Feb-23 21:25N 54°42' W 001°12'0 0.0
2015-Feb-23 17:31N 54°42' W 001°12'0 0.0
2015-Feb-23 16:28N 54°42' W 001°12'0 0.0
2015-Feb-23 15:28N 54°42' W 001°12'0 0.0
2015-Feb-23 14:28N 54°42' W 001°12'0 0.0
2015-Feb-23 13:28N 54°42' W 001°12'0 0.0
2015-Feb-23 12:28N 54°42' W 001°12'0 0.0
2015-Feb-23 11:19N 54°42' W 001°12'0 0.0
2015-Feb-23 10:19N 54°42' W 001°12'0 0.0
2015-Feb-23 09:25N 54°42' W 001°12'0 0.0
2015-Feb-23 08:25N 54°42' W 001°12'0 0.0
2015-Feb-23 07:25N 54°42' W 001°12'0 0.0
2015-Feb-23 05:31N 54°42' W 001°12'0 0.0
2015-Feb-23 04:19N 54°42' W 001°12'0 0.0
2015-Feb-23 03:28N 54°42' W 001°12'0 0.0
2015-Feb-23 02:10N 54°42' W 001°12'0 0.0
2015-Feb-23 01:22N 54°42' W 001°12'0 0.0
2015-Feb-23 00:31N 54°42' W 001°12'0 0.0
2015-Feb-22 22:25N 54°42' W 001°12'0 0.0
2015-Feb-22 21:07N 54°42' W 001°12'0 0.0
2015-Feb-22 16:04N 54°42' W 001°12'0 0.0
2015-Feb-22 15:25N 54°42' W 001°12'0 0.0
2015-Feb-22 14:28N 54°42' W 001°12'0 0.0
2015-Feb-22 13:13N 54°42' W 001°12'0 0.0
2015-Feb-22 12:28N 54°42' W 001°12'0 0.0
2015-Feb-22 11:31N 54°42' W 001°12'0 0.0
2015-Feb-22 10:16N 54°42' W 001°12'0 0.0
2015-Feb-22 09:22N 54°42' W 001°12'0 0.0
2015-Feb-22 08:19N 54°42' W 001°12'0 0.0
2015-Feb-22 07:19N 54°42' W 001°12'0 0.0
2015-Feb-22 06:22N 54°42' W 001°12'  

Dump ship's entire track history